Terminal Aerodrome Forecast
Issued by NWS

Home | Current Version | Previous Version | Text Only | Print | Product List | Glossary On
Versions: 1 2 3 4 5 6 7 8 9 10 11 12
000
FTUS42 TJSJ 231700
TAFJMZ
TAF
TJMZ 231728Z 2318/2418 16009KT P6SM VCSH FEW030 BKN050
      TEMPO 2318/2320 BKN030
     FM232100 06004KT P6SM SCT030 SCT080
     FM241300 VRB04KT P6SM SCT030=

USA.gov is the U.S. government's official web portal to all federal, state and local government web resources and services.